sensor_id;sensor_type;location;lat;lon;timestamp;pressure;altitude;pressure_sealevel;temperature;humidity
15678;BME280;7939;50.814;6.368;2023-03-16T00:01:16;100162.25;;;10.04;54.59
15678;BME280;7939;50.814;6.368;2023-03-16T00:03:43;100169.03;;;10.03;54.74
15678;BME280;7939;50.814;6.368;2023-03-16T00:06:11;100157.13;;;10.02;54.51
15678;BME280;7939;50.814;6.368;2023-03-16T00:08:37;100160.53;;;10.01;54.35
15678;BME280;7939;50.814;6.368;2023-03-16T00:11:04;100152.03;;;10.02;54.62
15678;BME280;7939;50.814;6.368;2023-03-16T00:13:31;100144.34;;;10.00;54.66
15678;BME280;7939;50.814;6.368;2023-03-16T00:15:59;100152.03;;;10.02;54.47
15678;BME280;7939;50.814;6.368;2023-03-16T00:18:27;100146.06;;;10.00;54.53
15678;BME280;7939;50.814;6.368;2023-03-16T00:20:56;100134.09;;;9.99;54.69
15678;BME280;7939;50.814;6.368;2023-03-16T00:23:25;100144.31;;;9.97;54.01
15678;BME280;7939;50.814;6.368;2023-03-16T00:25:52;100140.91;;;9.97;54.38
15678;BME280;7939;50.814;6.368;2023-03-16T00:28:19;100150.28;;;9.96;54.22
15678;BME280;7939;50.814;6.368;2023-03-16T00:30:46;100146.00;;;9.95;54.23
15678;BME280;7939;50.814;6.368;2023-03-16T00:33:13;100134.09;;;9.96;54.37
15678;BME280;7939;50.814;6.368;2023-03-16T00:35:39;100128.13;;;9.95;54.47
15678;BME280;7939;50.814;6.368;2023-03-16T00:38:16;100139.22;;;9.96;54.57
15678;BME280;7939;50.814;6.368;2023-03-16T00:40:44;100130.69;;;9.95;54.30
15678;BME280;7939;50.814;6.368;2023-03-16T00:43:11;100123.03;;;9.95;54.36
15678;BME280;7939;50.814;6.368;2023-03-16T00:45:43;100119.63;;;9.95;54.45
15678;BME280;7939;50.814;6.368;2023-03-16T00:48:10;100106.88;;;9.95;54.28
15678;BME280;7939;50.814;6.368;2023-03-16T00:50:36;100102.59;;;9.94;54.29
15678;BME280;7939;50.814;6.368;2023-03-16T00:53:03;100100.03;;;9.92;54.17
15678;BME280;7939;50.814;6.368;2023-03-16T00:55:30;100102.56;;;9.91;54.41
15678;BME280;7939;50.814;6.368;2023-03-16T00:57:59;100103.41;;;9.91;54.42
15678;BME280;7939;50.814;6.368;2023-03-16T01:00:29;100099.16;;;9.90;54.53
15678;BME280;7939;50.814;6.368;2023-03-16T01:02:56;100094.91;;;9.88;54.40
15678;BME280;7939;50.814;6.368;2023-03-16T01:05:23;100098.31;;;9.88;54.21
15678;BME280;7939;50.814;6.368;2023-03-16T01:07:50;100097.47;;;9.89;54.23
15678;BME280;7939;50.814;6.368;2023-03-16T01:10:16;100088.97;;;9.90;54.04
15678;BME280;7939;50.814;6.368;2023-03-16T01:12:43;100085.53;;;9.88;54.13
15678;BME280;7939;50.814;6.368;2023-03-16T01:15:11;100087.25;;;9.89;54.18
15678;BME280;7939;50.814;6.368;2023-03-16T01:17:38;100094.91;;;9.88;54.16
15678;BME280;7939;50.814;6.368;2023-03-16T01:20:06;100092.34;;;9.89;53.59
15678;BME280;7939;50.814;6.368;2023-03-16T01:22:36;100093.19;;;9.88;53.90
15678;BME280;7939;50.814;6.368;2023-03-16T01:25:03;100084.69;;;9.88;53.96
15678;BME280;7939;50.814;6.368;2023-03-16T01:27:30;100080.44;;;9.87;54.22
15678;BME280;7939;50.814;6.368;2023-03-16T01:29:57;100074.47;;;9.88;53.99
15678;BME280;7939;50.814;6.368;2023-03-16T01:32:25;100065.97;;;9.87;53.94
15678;BME280;7939;50.814;6.368;2023-03-16T01:34:52;100060.84;;;9.86;54.42
15678;BME280;7939;50.814;6.368;2023-03-16T01:37:18;100055.72;;;9.86;53.45
15678;BME280;7939;50.814;6.368;2023-03-16T01:39:47;100054.88;;;9.85;53.55
15678;BME280;7939;50.814;6.368;2023-03-16T01:42:13;100050.63;;;9.84;54.10
15678;BME280;7939;50.814;6.368;2023-03-16T01:44:52;100042.13;;;9.84;54.26
15678;BME280;7939;50.814;6.368;2023-03-16T01:47:20;100045.53;;;9.86;53.54
15678;BME280;7939;50.814;6.368;2023-03-16T01:49:49;100049.78;;;9.85;53.96
15678;BME280;7939;50.814;6.368;2023-03-16T01:52:21;100055.72;;;9.84;53.80
15678;BME280;7939;50.814;6.368;2023-03-16T01:54:50;100048.91;;;9.85;53.76
15678;BME280;7939;50.814;6.368;2023-03-16T01:57:21;100035.31;;;9.84;53.75
15678;BME280;7939;50.814;6.368;2023-03-16T01:59:52;100035.34;;;9.87;53.86
15678;BME280;7939;50.814;6.368;2023-03-16T02:02:23;100024.19;;;9.79;52.89
15678;BME280;7939;50.814;6.368;2023-03-16T02:04:55;100029.34;;;9.84;53.78
15678;BME280;7939;50.814;6.368;2023-03-16T02:07:25;100023.41;;;9.83;53.77
15678;BME280;7939;50.814;6.368;2023-03-16T02:09:56;100022.53;;;9.84;53.48
15678;BME280;7939;50.814;6.368;2023-03-16T02:12:24;100028.50;;;9.83;53.36
15678;BME280;7939;50.814;6.368;2023-03-16T02:14:51;100024.25;;;9.82;53.83
15678;BME280;7939;50.814;6.368;2023-03-16T02:17:19;100023.41;;;9.83;54.03
15678;BME280;7939;50.814;6.368;2023-03-16T02:19:55;100020.81;;;9.80;53.51
15678;BME280;7939;50.814;6.368;2023-03-16T02:22:24;100009.78;;;9.86;53.54
15678;BME280;7939;50.814;6.368;2023-03-16T02:24:51;100008.03;;;9.77;53.15
15678;BME280;7939;50.814;6.368;2023-03-16T02:27:23;100009.78;;;9.81;53.59
15678;BME280;7939;50.814;6.368;2023-03-16T02:30:02;100002.97;;;9.82;53.57
15678;BME280;7939;50.814;6.368;2023-03-16T02:32:31;100004.69;;;9.81;53.61
15678;BME280;7939;50.814;6.368;2023-03-16T02:34:58;99998.72;;;9.82;53.54
15678;BME280;7939;50.814;6.368;2023-03-16T02:37:26;100002.13;;;9.83;53.55
15678;BME280;7939;50.814;6.368;2023-03-16T02:39:53;99991.06;;;9.82;53.58
15678;BME280;7939;50.814;6.368;2023-03-16T02:42:22;99985.09;;;9.83;53.29
15678;BME280;7939;50.814;6.368;2023-03-16T02:44:53;99991.06;;;9.82;53.75
15678;BME280;7939;50.814;6.368;2023-03-16T02:47:29;99990.22;;;9.82;53.21
15678;BME280;7939;50.814;6.368;2023-03-16T02:49:57;99986.81;;;9.81;53.22
15678;BME280;7939;50.814;6.368;2023-03-16T02:52:24;99982.47;;;9.74;53.11
15678;BME280;7939;50.814;6.368;2023-03-16T02:54:50;99976.56;;;9.78;53.01
15678;BME280;7939;50.814;6.368;2023-03-16T02:57:17;99979.13;;;9.77;53.14
15678;BME280;7939;50.814;6.368;2023-03-16T02:59:43;99968.91;;;9.75;53.22
15678;BME280;7939;50.814;6.368;2023-03-16T03:02:10;99969.75;;;9.79;53.27
15678;BME280;7939;50.814;6.368;2023-03-16T03:04:38;99966.34;;;9.80;53.23
15678;BME280;7939;50.814;6.368;2023-03-16T03:07:06;99964.63;;;9.72;52.89
15678;BME280;7939;50.814;6.368;2023-03-16T03:09:33;99954.44;;;9.77;53.23
15678;BME280;7939;50.814;6.368;2023-03-16T03:11:59;99957.84;;;9.78;53.59
15678;BME280;7939;50.814;6.368;2023-03-16T03:14:26;99954.38;;;9.63;52.83
15678;BME280;7939;50.814;6.368;2023-03-16T03:16:54;99952.72;;;9.71;53.13
15678;BME280;7939;50.814;6.368;2023-03-16T03:19:21;99952.72;;;9.73;53.24
15678;BME280;7939;50.814;6.368;2023-03-16T03:21:50;99957.00;;;9.76;53.07
15678;BME280;7939;50.814;6.368;2023-03-16T03:24:21;99951.91;;;9.76;53.24
15678;BME280;7939;50.814;6.368;2023-03-16T03:26:48;99951.03;;;9.77;53.15
15678;BME280;7939;50.814;6.368;2023-03-16T03:29:16;99956.16;;;9.78;53.62
15678;BME280;7939;50.814;6.368;2023-03-16T03:31:43;99958.75;;;9.81;53.44
15678;BME280;7939;50.814;6.368;2023-03-16T03:34:09;99957.84;;;9.76;53.19
15678;BME280;7939;50.814;6.368;2023-03-16T03:36:36;99946.78;;;9.77;53.04
15678;BME280;7939;50.814;6.368;2023-03-16T03:39:04;99949.34;;;9.77;53.22
15678;BME280;7939;50.814;6.368;2023-03-16T03:41:32;99949.25;;;9.66;52.88
15678;BME280;7939;50.814;6.368;2023-03-16T03:43:59;99956.97;;;9.72;53.05
15678;BME280;7939;50.814;6.368;2023-03-16T03:46:26;99952.75;;;9.75;53.47
15678;BME280;7939;50.814;6.368;2023-03-16T03:48:52;99948.50;;;9.75;53.30
15678;BME280;7939;50.814;6.368;2023-03-16T03:51:19;99945.09;;;9.75;52.90
15678;BME280;7939;50.814;6.368;2023-03-16T03:53:46;99951.84;;;9.74;52.95
15678;BME280;7939;50.814;6.368;2023-03-16T03:56:13;99953.56;;;9.73;53.59
15678;BME280;7939;50.814;6.368;2023-03-16T03:58:40;99950.19;;;9.75;53.31
15678;BME280;7939;50.814;6.368;2023-03-16T04:01:06;99956.16;;;9.77;53.32
15678;BME280;7939;50.814;6.368;2023-03-16T04:03:33;99951.03;;;9.75;52.86
15678;BME280;7939;50.814;6.368;2023-03-16T04:06:00;99952.75;;;9.76;53.39
15678;BME280;7939;50.814;6.368;2023-03-16T04:08:27;99958.69;;;9.75;53.01
15678;BME280;7939;50.814;6.368;2023-03-16T04:10:53;99952.75;;;9.75;53.30
15678;BME280;7939;50.814;6.368;2023-03-16T04:13:21;99957.78;;;9.65;52.62
15678;BME280;7939;50.814;6.368;2023-03-16T04:15:48;99956.97;;;9.69;53.13
15678;BME280;7939;50.814;6.368;2023-03-16T04:18:14;99951.00;;;9.73;52.87
15678;BME280;7939;50.814;6.368;2023-03-16T04:20:41;99951.00;;;9.73;53.66
15678;BME280;7939;50.814;6.368;2023-03-16T04:23:07;99948.47;;;9.72;53.38
15678;BME280;7939;50.814;6.368;2023-03-16T04:25:34;99951.84;;;9.74;53.37
15678;BME280;7939;50.814;6.368;2023-03-16T04:28:02;99951.00;;;9.73;53.53
15678;BME280;7939;50.814;6.368;2023-03-16T04:30:30;99952.72;;;9.70;53.34
15678;BME280;7939;50.814;6.368;2023-03-16T04:32:57;99943.34;;;9.73;53.11
15678;BME280;7939;50.814;6.368;2023-03-16T04:35:23;99939.94;;;9.73;53.14
15678;BME280;7939;50.814;6.368;2023-03-16T04:37:50;99939.09;;;9.74;53.48
15678;BME280;7939;50.814;6.368;2023-03-16T04:40:17;99931.44;;;9.74;53.25
15678;BME280;7939;50.814;6.368;2023-03-16T04:42:46;99930.59;;;9.72;53.15
15678;BME280;7939;50.814;6.368;2023-03-16T04:45:13;99930.59;;;9.73;53.91
15678;BME280;7939;50.814;6.368;2023-03-16T04:47:43;99926.38;;;9.76;53.45
15678;BME280;7939;50.814;6.368;2023-03-16T04:50:11;99922.13;;;9.76;53.23
15678;BME280;7939;50.814;6.368;2023-03-16T04:52:37;99917.84;;;9.73;52.97
15678;BME280;7939;50.814;6.368;2023-03-16T04:55:05;99917.88;;;9.75;53.04
15678;BME280;7939;50.814;6.368;2023-03-16T04:57:31;99923.81;;;9.76;53.72
15678;BME280;7939;50.814;6.368;2023-03-16T04:59:59;99918.72;;;9.76;53.12
15678;BME280;7939;50.814;6.368;2023-03-16T05:02:26;99914.44;;;9.70;52.96
15678;BME280;7939;50.814;6.368;2023-03-16T05:04:54;99914.47;;;9.75;53.29
15678;BME280;7939;50.814;6.368;2023-03-16T05:07:21;99912.75;;;9.77;53.63
15678;BME280;7939;50.814;6.368;2023-03-16T05:09:48;99915.31;;;9.77;52.96
15678;BME280;7939;50.814;6.368;2023-03-16T05:12:15;99917.03;;;9.79;53.46
15678;BME280;7939;50.814;6.368;2023-03-16T05:14:42;99913.63;;;9.79;53.24
15678;BME280;7939;50.814;6.368;2023-03-16T05:17:08;99915.31;;;9.78;53.67
15678;BME280;7939;50.814;6.368;2023-03-16T05:19:38;99920.41;;;9.78;53.55
15678;BME280;7939;50.814;6.368;2023-03-16T05:22:08;99915.31;;;9.78;53.41
15678;BME280;7939;50.814;6.368;2023-03-16T05:24:34;99922.13;;;9.79;53.11
15678;BME280;7939;50.814;6.368;2023-03-16T05:27:01;99917.88;;;9.78;53.06
15678;BME280;7939;50.814;6.368;2023-03-16T05:29:28;99925.50;;;9.69;52.84
15678;BME280;7939;50.814;6.368;2023-03-16T05:31:56;99922.94;;;9.73;53.04
15678;BME280;7939;50.814;6.368;2023-03-16T05:34:23;99919.53;;;9.73;52.91
15678;BME280;7939;50.814;6.368;2023-03-16T05:36:50;99911.91;;;9.76;53.16
15678;BME280;7939;50.814;6.368;2023-03-16T05:39:18;99918.72;;;9.77;53.34
15678;BME280;7939;50.814;6.368;2023-03-16T05:41:45;99919.56;;;9.76;53.21
15678;BME280;7939;50.814;6.368;2023-03-16T05:44:11;99922.13;;;9.79;53.56
15678;BME280;7939;50.814;6.368;2023-03-16T05:46:38;99914.47;;;9.76;53.56
15678;BME280;7939;50.814;6.368;2023-03-16T05:49:04;99919.59;;;9.81;52.96
15678;BME280;7939;50.814;6.368;2023-03-16T05:51:31;99920.41;;;9.78;53.39
15678;BME280;7939;50.814;6.368;2023-03-16T05:53:57;99922.97;;;9.78;53.19
15678;BME280;7939;50.814;6.368;2023-03-16T05:56:26;99927.22;;;9.79;53.12
15678;BME280;7939;50.814;6.368;2023-03-16T05:58:54;99928.06;;;9.75;53.56
15678;BME280;7939;50.814;6.368;2023-03-16T06:01:22;99924.69;;;9.76;53.23
15678;BME280;7939;50.814;6.368;2023-03-16T06:03:49;99926.38;;;9.77;53.86
15678;BME280;7939;50.814;6.368;2023-03-16T06:06:17;99927.22;;;9.79;53.60
15678;BME280;7939;50.814;6.368;2023-03-16T06:08:43;99925.53;;;9.78;53.68
15678;BME280;7939;50.814;6.368;2023-03-16T06:11:10;99917.03;;;9.79;53.33
15678;BME280;7939;50.814;6.368;2023-03-16T06:13:38;99921.28;;;9.80;53.66
15678;BME280;7939;50.814;6.368;2023-03-16T06:16:06;99921.28;;;9.79;53.66
15678;BME280;7939;50.814;6.368;2023-03-16T06:18:33;99925.56;;;9.81;53.35
15678;BME280;7939;50.814;6.368;2023-03-16T06:21:00;99924.72;;;9.82;53.51
15678;BME280;7939;50.814;6.368;2023-03-16T06:23:26;99926.41;;;9.82;53.79
15678;BME280;7939;50.814;6.368;2023-03-16T06:25:53;99917.03;;;9.79;53.99
15678;BME280;7939;50.814;6.368;2023-03-16T06:28:20;99918.72;;;9.80;53.54
15678;BME280;7939;50.814;6.368;2023-03-16T06:30:52;99917.06;;;9.84;53.67
15678;BME280;7939;50.814;6.368;2023-03-16T06:33:18;99928.09;;;9.83;53.57
15678;BME280;7939;50.814;6.368;2023-03-16T06:35:45;99923.00;;;9.81;53.40
15678;BME280;7939;50.814;6.368;2023-03-16T06:38:12;99932.38;;;9.81;53.64
15678;BME280;7939;50.814;6.368;2023-03-16T06:40:39;99930.66;;;9.81;53.79
15678;BME280;7939;50.814;6.368;2023-03-16T06:43:06;99928.09;;;9.81;53.81
15678;BME280;7939;50.814;6.368;2023-03-16T06:45:32;99930.66;;;9.83;53.93
15678;BME280;7939;50.814;6.368;2023-03-16T06:48:00;99930.66;;;9.83;53.51
15678;BME280;7939;50.814;6.368;2023-03-16T06:50:27;99934.06;;;9.85;53.95
15678;BME280;7939;50.814;6.368;2023-03-16T06:52:54;99940.88;;;9.84;53.59
15678;BME280;7939;50.814;6.368;2023-03-16T06:55:20;99940.03;;;9.82;53.69
15678;BME280;7939;50.814;6.368;2023-03-16T06:57:47;99945.97;;;9.83;53.99
15678;BME280;7939;50.814;6.368;2023-03-16T07:00:14;99952.78;;;9.81;53.95
15678;BME280;7939;50.814;6.368;2023-03-16T07:02:41;99952.78;;;9.84;53.83
15678;BME280;7939;50.814;6.368;2023-03-16T07:05:09;99962.13;;;9.85;53.83
15678;BME280;7939;50.814;6.368;2023-03-16T07:07:37;99955.34;;;9.84;54.15
15678;BME280;7939;50.814;6.368;2023-03-16T07:10:04;99954.47;;;9.85;54.08
15678;BME280;7939;50.814;6.368;2023-03-16T07:12:31;99951.94;;;9.85;54.07
15678;BME280;7939;50.814;6.368;2023-03-16T07:14:58;99941.28;;;11.57;56.07
15678;BME280;7939;50.814;6.368;2023-03-16T07:17:25;99931.63;;;12.40;53.84
15678;BME280;7939;50.814;6.368;2023-03-16T07:19:51;99921.81;;;13.08;51.56
15678;BME280;7939;50.814;6.368;2023-03-16T07:22:19;99920.81;;;13.24;49.40
15678;BME280;7939;50.814;6.368;2023-03-16T07:24:46;99919.56;;;13.68;48.41
15678;BME280;7939;50.814;6.368;2023-03-16T07:27:16;99919.94;;;13.28;48.21
15678;BME280;7939;50.814;6.368;2023-03-16T07:29:42;99929.00;;;12.51;48.54
15678;BME280;7939;50.814;6.368;2023-03-16T07:32:09;99935.00;;;12.48;50.09
15678;BME280;7939;50.814;6.368;2023-03-16T07:34:36;99929.91;;;12.40;50.09
15678;BME280;7939;50.814;6.368;2023-03-16T07:37:02;99939.41;;;12.12;50.85
15678;BME280;7939;50.814;6.368;2023-03-16T07:39:30;99940.38;;;11.81;50.88
15678;BME280;7939;50.814;6.368;2023-03-16T07:41:57;99938.69;;;11.71;51.36
15678;BME280;7939;50.814;6.368;2023-03-16T07:44:24;99945.50;;;11.62;51.12
15678;BME280;7939;50.814;6.368;2023-03-16T07:46:50;99951.50;;;11.37;51.88
15678;BME280;7939;50.814;6.368;2023-03-16T07:49:17;99943.00;;;11.27;51.61
15678;BME280;7939;50.814;6.368;2023-03-16T07:51:44;99943.84;;;11.32;51.87
15678;BME280;7939;50.814;6.368;2023-03-16T07:54:11;99949.81;;;11.16;52.64
15678;BME280;7939;50.814;6.368;2023-03-16T07:56:39;99940.41;;;11.18;52.15
15678;BME280;7939;50.814;6.368;2023-03-16T07:59:06;99950.66;;;11.09;52.30
15678;BME280;7939;50.814;6.368;2023-03-16T08:01:33;99954.06;;;11.11;51.89
15678;BME280;7939;50.814;6.368;2023-03-16T08:04:01;99939.56;;;10.95;52.71
15678;BME280;7939;50.814;6.368;2023-03-16T08:06:28;99943.81;;;10.93;53.06
15678;BME280;7939;50.814;6.368;2023-03-16T08:08:55;99945.50;;;10.86;52.95
15678;BME280;7939;50.814;6.368;2023-03-16T08:11:21;99938.72;;;10.82;52.73
15678;BME280;7939;50.814;6.368;2023-03-16T08:13:50;99948.91;;;10.71;53.67
15678;BME280;7939;50.814;6.368;2023-03-16T08:16:19;99936.09;;;10.68;53.30
15678;BME280;7939;50.814;6.368;2023-03-16T08:18:46;99936.09;;;10.58;53.36
15678;BME280;7939;50.814;6.368;2023-03-16T08:21:13;99936.97;;;10.64;53.92
15678;BME280;7939;50.814;6.368;2023-03-16T08:23:40;99930.97;;;10.61;53.59
15678;BME280;7939;50.814;6.368;2023-03-16T08:26:08;99933.53;;;10.61;54.08
15678;BME280;7939;50.814;6.368;2023-03-16T08:28:35;99925.88;;;10.58;54.02
15678;BME280;7939;50.814;6.368;2023-03-16T08:31:06;99921.63;;;10.58;54.63
15678;BME280;7939;50.814;6.368;2023-03-16T08:33:32;99918.22;;;10.65;54.31
15678;BME280;7939;50.814;6.368;2023-03-16T08:36:00;99923.38;;;11.03;54.08
15678;BME280;7939;50.814;6.368;2023-03-16T08:38:26;99913.13;;;11.05;53.99
15678;BME280;7939;50.814;6.368;2023-03-16T08:40:53;99916.53;;;11.12;53.49
15678;BME280;7939;50.814;6.368;2023-03-16T08:43:21;99917.41;;;11.04;53.34
15678;BME280;7939;50.814;6.368;2023-03-16T08:45:50;99915.69;;;11.19;53.46
15678;BME280;7939;50.814;6.368;2023-03-16T08:48:18;99916.56;;;11.01;53.76
15678;BME280;7939;50.814;6.368;2023-03-16T08:50:45;99913.97;;;10.93;54.03
15678;BME280;7939;50.814;6.368;2023-03-16T08:53:12;99914.00;;;10.96;53.64
15678;BME280;7939;50.814;6.368;2023-03-16T08:55:39;99916.56;;;10.95;54.20
15678;BME280;7939;50.814;6.368;2023-03-16T08:58:07;99919.97;;;10.91;54.27
15678;BME280;7939;50.814;6.368;2023-03-16T09:00:34;99919.94;;;11.00;53.87
15678;BME280;7939;50.814;6.368;2023-03-16T09:03:01;99915.72;;;10.96;53.98
15678;BME280;7939;50.814;6.368;2023-03-16T09:05:29;99914.84;;;10.89;53.91
15678;BME280;7939;50.814;6.368;2023-03-16T09:07:56;99909.75;;;10.94;53.61
15678;BME280;7939;50.814;6.368;2023-03-16T09:10:23;99916.56;;;11.16;52.55
15678;BME280;7939;50.814;6.368;2023-03-16T09:12:50;99925.91;;;11.19;53.20
15678;BME280;7939;50.814;6.368;2023-03-16T09:15:18;99920.81;;;11.42;51.78
15678;BME280;7939;50.814;6.368;2023-03-16T09:17:45;99912.25;;;11.47;52.32
15678;BME280;7939;50.814;6.368;2023-03-16T09:20:12;99905.44;;;11.37;51.84
15678;BME280;7939;50.814;6.368;2023-03-16T09:22:41;99915.66;;;11.63;51.59
15678;BME280;7939;50.814;6.368;2023-03-16T09:25:08;99904.56;;;11.55;51.29
15678;BME280;7939;50.814;6.368;2023-03-16T09:27:36;99903.72;;;11.59;51.56
15678;BME280;7939;50.814;6.368;2023-03-16T09:30:03;99903.63;;;11.97;51.04
15678;BME280;7939;50.814;6.368;2023-03-16T09:32:30;99898.56;;;11.71;51.12
15678;BME280;7939;50.814;6.368;2023-03-16T09:34:57;99902.88;;;11.58;51.62
15678;BME280;7939;50.814;6.368;2023-03-16T09:37:24;99903.72;;;11.54;51.56
15678;BME280;7939;50.814;6.368;2023-03-16T09:39:52;99908.00;;;11.52;51.06
15678;BME280;7939;50.814;6.368;2023-03-16T09:42:26;99896.88;;;11.61;50.57
15678;BME280;7939;50.814;6.368;2023-03-16T09:45:05;99889.16;;;11.85;50.16
15678;BME280;7939;50.814;6.368;2023-03-16T09:47:34;99888.28;;;11.91;50.08
15678;BME280;7939;50.814;6.368;2023-03-16T09:50:05;99894.03;;;12.37;49.15
15678;BME280;7939;50.814;6.368;2023-03-16T09:52:38;99895.03;;;12.13;48.68
15678;BME280;7939;50.814;6.368;2023-03-16T09:55:16;99890.41;;;12.77;48.01
15678;BME280;7939;50.814;6.368;2023-03-16T09:57:50;99890.56;;;12.49;47.84
15678;BME280;7939;50.814;6.368;2023-03-16T10:00:19;99890.66;;;12.38;48.98
15678;BME280;7939;50.814;6.368;2023-03-16T10:03:01;99888.03;;;12.43;48.27
15678;BME280;7939;50.814;6.368;2023-03-16T10:05:31;99882.97;;;12.35;48.76
15678;BME280;7939;50.814;6.368;2023-03-16T10:08:07;99883.41;;;12.97;46.97
15678;BME280;7939;50.814;6.368;2023-03-16T10:11:02;99873.28;;;12.77;48.06
15678;BME280;7939;50.814;6.368;2023-03-16T10:13:36;99874.69;;;13.13;47.01
15678;BME280;7939;50.814;6.368;2023-03-16T10:16:08;99879.25;;;12.82;47.10
15678;BME280;7939;50.814;6.368;2023-03-16T10:18:43;99870.22;;;13.37;46.59
15678;BME280;7939;50.814;6.368;2023-03-16T10:21:11;99865.16;;;13.34;46.75
15678;BME280;7939;50.814;6.368;2023-03-16T10:23:40;99864.50;;;13.09;48.15
15678;BME280;7939;50.814;6.368;2023-03-16T10:26:13;99860.28;;;13.02;46.94
15678;BME280;7939;50.814;6.368;2023-03-16T10:28:41;99858.53;;;13.04;47.09
15678;BME280;7939;50.814;6.368;2023-03-16T10:31:11;99859.09;;;13.39;46.67
15678;BME280;7939;50.814;6.368;2023-03-16T10:33:38;99860.19;;;13.11;47.20
15678;BME280;7939;50.814;6.368;2023-03-16T10:36:12;99858.59;;;12.98;46.16
15678;BME280;7939;50.814;6.368;2023-03-16T10:38:41;99853.50;;;12.91;46.81
15678;BME280;7939;50.814;6.368;2023-03-16T10:41:21;99848.03;;;13.33;46.49
15678;BME280;7939;50.814;6.368;2023-03-16T10:43:51;99833.69;;;13.07;46.79
15678;BME280;7939;50.814;6.368;2023-03-16T10:46:20;99839.75;;;13.02;47.79
15678;BME280;7939;50.814;6.368;2023-03-16T10:48:51;99833.81;;;12.93;47.47
15678;BME280;7939;50.814;6.368;2023-03-16T10:51:23;99828.66;;;12.98;47.06
15678;BME280;7939;50.814;6.368;2023-03-16T10:53:51;99829.22;;;13.31;46.58
15678;BME280;7939;50.814;6.368;2023-03-16T10:56:23;99823.19;;;13.36;46.87
15678;BME280;7939;50.814;6.368;2023-03-16T10:58:50;99823.28;;;13.26;47.25
15678;BME280;7939;50.814;6.368;2023-03-16T11:01:20;99812.06;;;13.36;46.03
15678;BME280;7939;50.814;6.368;2023-03-16T11:03:48;99819.38;;;13.71;45.32
15678;BME280;7939;50.814;6.368;2023-03-16T11:06:21;99807.63;;;13.52;46.42
15678;BME280;7939;50.814;6.368;2023-03-16T11:08:50;99811.00;;;13.54;47.60
15678;BME280;7939;50.814;6.368;2023-03-16T11:11:24;99802.16;;;13.76;46.56
15678;BME280;7939;50.814;6.368;2023-03-16T11:13:56;99795.06;;;13.95;44.84
15678;BME280;7939;50.814;6.368;2023-03-16T11:16:27;99778.69;;;14.03;45.78
15678;BME280;7939;50.814;6.368;2023-03-16T11:18:57;99782.31;;;13.90;44.42
15678;BME280;7939;50.814;6.368;2023-03-16T11:21:34;99783.19;;;14.48;43.37
15678;BME280;7939;50.814;6.368;2023-03-16T11:24:04;99788.69;;;14.23;44.68
15678;BME280;7939;50.814;6.368;2023-03-16T11:26:35;99782.84;;;14.12;44.89
15678;BME280;7939;50.814;6.368;2023-03-16T11:29:06;99782.69;;;14.23;43.87
15678;BME280;7939;50.814;6.368;2023-03-16T11:31:41;99783.59;;;14.19;43.83
15678;BME280;7939;50.814;6.368;2023-03-16T11:34:13;99784.63;;;14.09;45.47
15678;BME280;7939;50.814;6.368;2023-03-16T11:36:48;99786.41;;;14.03;45.72
15678;BME280;7939;50.814;6.368;2023-03-16T11:39:23;99782.13;;;14.02;45.53
15678;BME280;7939;50.814;6.368;2023-03-16T11:42:01;99770.25;;;13.95;45.49
15678;BME280;7939;50.814;6.368;2023-03-16T11:44:33;99770.31;;;13.91;46.36
15678;BME280;7939;50.814;6.368;2023-03-16T11:47:07;99756.56;;;13.93;45.23
15678;BME280;7939;50.814;6.368;2023-03-16T11:49:50;99757.50;;;13.89;44.96
15678;BME280;7939;50.814;6.368;2023-03-16T11:52:26;99746.25;;;13.96;45.11
15678;BME280;7939;50.814;6.368;2023-03-16T11:55:09;99748.81;;;13.95;46.24
15678;BME280;7939;50.814;6.368;2023-03-16T11:57:51;99749.66;;;13.98;45.27
15678;BME280;7939;50.814;6.368;2023-03-16T12:00:26;99739.38;;;13.98;46.00
15678;BME280;7939;50.814;6.368;2023-03-16T12:06:01;99716.69;;;14.77;44.13
15678;BME280;7939;50.814;6.368;2023-03-16T12:08:43;99705.84;;;14.60;43.18
15678;BME280;7939;50.814;6.368;2023-03-16T12:11:19;99719.00;;;14.91;43.65
15678;BME280;7939;50.814;6.368;2023-03-16T12:14:00;99717.25;;;14.93;42.61
15678;BME280;7939;50.814;6.368;2023-03-16T12:16:30;99702.13;;;15.20;41.82
15678;BME280;7939;50.814;6.368;2023-03-16T12:19:01;99704.84;;;15.15;42.76
15678;BME280;7939;50.814;6.368;2023-03-16T12:21:31;99701.59;;;15.47;41.80
15678;BME280;7939;50.814;6.368;2023-03-16T12:24:01;99706.44;;;15.61;42.13
15678;BME280;7939;50.814;6.368;2023-03-16T12:26:32;99690.03;;;15.67;41.06
15678;BME280;7939;50.814;6.368;2023-03-16T12:29:06;99686.72;;;15.58;41.41
15678;BME280;7939;50.814;6.368;2023-03-16T12:31:43;99690.59;;;15.39;43.00
15678;BME280;7939;50.814;6.368;2023-03-16T12:34:20;99686.53;;;15.29;43.15
15678;BME280;7939;50.814;6.368;2023-03-16T12:37:16;99677.19;;;15.23;42.14
15678;BME280;7939;50.814;6.368;2023-03-16T12:39:55;99675.16;;;15.37;42.04
15678;BME280;7939;50.814;6.368;2023-03-16T12:42:43;99664.09;;;15.34;42.82
15678;BME280;7939;50.814;6.368;2023-03-16T12:45:25;99668.19;;;15.43;41.44
15678;BME280;7939;50.814;6.368;2023-03-16T12:48:01;99653.81;;;15.34;41.73
15678;BME280;7939;50.814;6.368;2023-03-16T12:50:30;99654.03;;;15.63;41.03
15678;BME280;7939;50.814;6.368;2023-03-16T12:52:57;99653.69;;;15.40;42.71
15678;BME280;7939;50.814;6.368;2023-03-16T12:55:37;99652.84;;;15.38;42.88
15678;BME280;7939;50.814;6.368;2023-03-16T12:58:07;99654.88;;;15.24;42.87
15678;BME280;7939;50.814;6.368;2023-03-16T13:00:37;99658.38;;;15.21;43.81
15678;BME280;7939;50.814;6.368;2023-03-16T13:03:10;99650.03;;;15.10;42.96
15678;BME280;7939;50.814;6.368;2023-03-16T13:05:44;99640.91;;;15.35;42.82
15678;BME280;7939;50.814;6.368;2023-03-16T13:08:14;99639.78;;;15.47;42.33
15678;BME280;7939;50.814;6.368;2023-03-16T13:10:42;99635.91;;;15.68;41.38
15678;BME280;7939;50.814;6.368;2023-03-16T13:13:24;99635.84;;;15.70;41.19
15678;BME280;7939;50.814;6.368;2023-03-16T13:16:04;99638.59;;;15.99;40.72
15678;BME280;7939;50.814;6.368;2023-03-16T13:18:37;99630.44;;;16.16;40.10
15678;BME280;7939;50.814;6.368;2023-03-16T13:21:17;99616.72;;;16.14;40.65
15678;BME280;7939;50.814;6.368;2023-03-16T13:23:53;99623.88;;;16.03;40.77
15678;BME280;7939;50.814;6.368;2023-03-16T13:26:38;99613.41;;;16.10;40.89
15678;BME280;7939;50.814;6.368;2023-03-16T13:29:23;99611.28;;;16.26;39.98